createdAt,value
2022-08-17T00:00:34.472Z,20.70
2022-08-17T00:03:26.453Z,20.60
2022-08-17T00:06:12.140Z,20.60
2022-08-17T00:09:05.696Z,20.50
2022-08-17T00:11:38.818Z,20.50
2022-08-17T00:14:19.637Z,21.20
2022-08-17T00:16:57.443Z,20.50
2022-08-17T00:19:27.661Z,20.50
2022-08-17T00:22:35.207Z,20.50
2022-08-17T00:35:08.997Z,20.30
2022-08-17T00:40:07.149Z,19.90
2022-08-17T00:52:39.099Z,20.30
2022-08-17T00:55:09.171Z,20.30
2022-08-17T00:57:45.136Z,20.30
2022-08-17T01:00:21.431Z,20.30
2022-08-17T01:05:21.990Z,20.30
2022-08-17T01:07:51.438Z,20.30
2022-08-17T01:10:59.578Z,20.30
2022-08-17T01:13:14.612Z,20.20
2022-08-17T01:15:49.146Z,20.30
2022-08-17T01:20:53.013Z,20.30
2022-08-17T01:23:25.043Z,20.20
2022-08-17T01:25:58.018Z,20.30
2022-08-17T01:28:33.352Z,20.30
2022-08-17T01:41:16.898Z,20.20
2022-08-17T01:44:01.660Z,20.20
2022-08-17T01:46:35.610Z,20.20
2022-08-17T01:49:09.154Z,20.10
2022-08-17T01:54:12.971Z,20.10
2022-08-17T01:56:47.818Z,20.00
2022-08-17T02:04:16.096Z,20.00
2022-08-17T02:06:52.661Z,19.50
2022-08-17T02:09:29.791Z,20.10
2022-08-17T02:12:37.820Z,20.10
2022-08-17T02:25:00.058Z,20.10
2022-08-17T02:32:28.778Z,20.10
2022-08-17T02:34:59.688Z,20.10
2022-08-17T02:37:30.173Z,20.10
2022-08-17T02:42:42.241Z,20.10
2022-08-17T02:45:19.165Z,20.10
2022-08-17T02:50:18.297Z,20.00
2022-08-17T02:52:51.504Z,19.90
2022-08-17T02:55:38.779Z,19.70
2022-08-17T03:00:41.346Z,20.10
2022-08-17T03:03:13.532Z,20.10
2022-08-17T03:08:13.353Z,20.10
2022-08-17T03:18:19.316Z,20.10
2022-08-17T03:23:27.905Z,20.00
2022-08-17T03:43:28.688Z,20.00
2022-08-17T04:02:23.358Z,20.00
2022-08-17T04:07:23.420Z,20.10
2022-08-17T04:12:23.345Z,20.10
2022-08-17T04:17:29.920Z,20.20
2022-08-17T04:19:59.086Z,18.60
2022-08-17T04:22:32.790Z,20.30
2022-08-17T04:25:27.386Z,20.30
2022-08-17T04:27:56.848Z,20.40
2022-08-17T04:33:11.863Z,20.10
2022-08-17T04:35:47.592Z,20.40
2022-08-17T04:38:19.517Z,20.40
2022-08-17T04:43:37.000Z,20.10
2022-08-17T04:46:12.965Z,20.50
2022-08-17T04:48:46.292Z,20.60
2022-08-17T04:51:31.828Z,20.60
2022-08-17T04:54:14.373Z,21.00
2022-08-17T04:56:43.516Z,20.70
2022-08-17T04:59:18.851Z,20.70
2022-08-17T05:01:49.990Z,20.70
2022-08-17T05:04:34.929Z,20.70
2022-08-17T05:12:03.334Z,20.80
2022-08-17T05:32:38.550Z,20.80
2022-08-17T05:44:59.498Z,21.00
2022-08-17T05:53:05.007Z,20.80
2022-08-17T05:55:49.865Z,21.20
2022-08-17T05:59:02.129Z,22.30
2022-08-17T06:02:23.972Z,21.50
2022-08-17T06:05:16.687Z,21.60
2022-08-17T06:08:13.999Z,22.00
2022-08-17T06:16:33.270Z,21.80
2022-08-17T06:21:45.921Z,21.90
2022-08-17T06:24:44.418Z,21.70
2022-08-17T06:27:38.576Z,22.10
2022-08-17T06:30:16.873Z,22.20
2022-08-17T06:32:48.429Z,22.30
2022-08-17T06:35:35.164Z,22.30
2022-08-17T06:38:37.157Z,22.40
2022-08-17T06:41:41.812Z,22.50
2022-08-17T06:47:28.465Z,22.60
2022-08-17T06:50:19.707Z,22.60
2022-08-17T06:53:08.823Z,23.70
2022-08-17T06:55:48.606Z,23.10
2022-08-17T06:58:23.035Z,23.30
2022-08-17T07:04:11.931Z,23.20
2022-08-17T07:06:55.162Z,23.70
2022-08-17T07:09:36.017Z,23.20
2022-08-17T07:12:17.052Z,23.90
2022-08-17T07:14:53.076Z,23.90
2022-08-17T07:17:36.931Z,24.10
2022-08-17T07:20:22.716Z,23.80
2022-08-17T07:23:17.627Z,24.90
2022-08-17T07:30:55.216Z,25.20
2022-08-17T07:38:28.549Z,25.60
2022-08-17T07:43:49.975Z,26.00
2022-08-17T07:46:53.296Z,26.20
2022-08-17T07:49:37.551Z,27.20
2022-08-17T07:52:50.417Z,26.40
2022-08-17T07:55:35.029Z,27.30
2022-08-17T08:03:27.149Z,26.90
2022-08-17T08:06:02.126Z,27.10
2022-08-17T08:11:16.265Z,27.30
2022-08-17T08:13:46.060Z,27.50
2022-08-17T08:16:21.303Z,27.30
2022-08-17T08:18:56.886Z,27.60
2022-08-17T08:21:51.433Z,27.50
2022-08-17T08:24:45.683Z,27.50
2022-08-17T08:27:48.756Z,28.00
2022-08-17T08:30:21.564Z,27.70
2022-08-17T08:35:56.514Z,28.50
2022-08-17T08:38:36.402Z,28.10
2022-08-17T08:41:46.833Z,27.80
2022-08-17T08:45:00.616Z,28.20
2022-08-17T08:47:51.115Z,27.50
2022-08-17T08:50:37.005Z,27.80
2022-08-17T08:53:39.680Z,28.60
2022-08-17T08:56:25.525Z,27.70
2022-08-17T08:58:59.488Z,29.20
2022-08-17T09:02:14.154Z,28.80
2022-08-17T09:05:32.580Z,29.10
2022-08-17T09:08:22.230Z,29.20
2022-08-17T09:11:05.180Z,29.60
2022-08-17T09:13:54.783Z,29.60
2022-08-17T09:16:51.330Z,29.30
2022-08-17T09:19:50.856Z,29.90
2022-08-17T09:25:08.140Z,29.60
2022-08-17T09:27:52.347Z,30.00
2022-08-17T09:30:21.964Z,31.00
2022-08-17T09:32:58.811Z,28.60
2022-08-17T09:35:37.982Z,29.00
2022-08-17T09:38:50.233Z,28.70
2022-08-17T09:41:30.462Z,30.00
2022-08-17T09:44:24.136Z,30.10
2022-08-17T09:47:02.691Z,28.90
2022-08-17T09:49:43.805Z,29.60
2022-08-17T09:52:17.861Z,29.60
2022-08-17T09:54:47.471Z,29.50
2022-08-17T09:57:32.452Z,29.40
2022-08-17T10:00:09.836Z,30.40
2022-08-17T10:03:09.939Z,29.30
2022-08-17T10:06:08.384Z,28.80
2022-08-17T10:09:08.201Z,28.80
2022-08-17T10:12:21.423Z,29.30
2022-08-17T10:14:55.013Z,29.50
2022-08-17T10:17:47.577Z,29.10
2022-08-17T10:20:38.794Z,29.30
2022-08-17T10:23:42.803Z,29.40
2022-08-17T10:26:54.176Z,29.30
2022-08-17T10:29:54.724Z,28.50
2022-08-17T10:32:28.046Z,29.10
2022-08-17T10:35:17.214Z,30.00
2022-08-17T10:38:27.426Z,29.40
2022-08-17T10:41:40.817Z,29.50
2022-08-17T10:44:38.236Z,30.20
2022-08-17T10:47:16.328Z,28.60
2022-08-17T10:49:52.228Z,28.90
2022-08-17T10:52:30.529Z,30.30
2022-08-17T10:55:17.836Z,29.50
2022-08-17T10:57:50.747Z,29.30
2022-08-17T11:00:26.951Z,30.30
2022-08-17T11:02:57.488Z,29.30
2022-08-17T11:05:53.889Z,29.30
2022-08-17T11:08:31.869Z,29.30
2022-08-17T11:11:47.823Z,29.50
2022-08-17T11:14:30.793Z,30.30
2022-08-17T11:17:32.113Z,29.30
2022-08-17T11:20:47.651Z,28.80
2022-08-17T11:23:42.883Z,29.50
2022-08-17T11:26:25.987Z,29.50
2022-08-17T11:29:01.400Z,29.60
2022-08-17T11:31:39.990Z,30.20
2022-08-17T11:34:26.498Z,29.60
2022-08-17T11:37:29.076Z,29.40
2022-08-17T11:43:07.599Z,28.80
2022-08-17T11:45:53.908Z,28.60
2022-08-17T11:49:23.189Z,28.80
2022-08-17T11:52:04.233Z,29.90
2022-08-17T11:54:33.688Z,29.30
2022-08-17T11:57:27.718Z,30.80
2022-08-17T12:02:31.681Z,30.20
2022-08-17T12:05:13.202Z,30.40
2022-08-17T12:08:18.545Z,29.20
2022-08-17T12:11:03.499Z,30.80
2022-08-17T12:13:39.918Z,29.10
2022-08-17T12:16:10.038Z,30.10
2022-08-17T12:18:42.124Z,30.20
2022-08-17T12:21:22.382Z,30.20
2022-08-17T12:24:18.699Z,30.40
2022-08-17T12:27:01.233Z,29.30
2022-08-17T12:29:38.364Z,30.00
2022-08-17T12:32:08.653Z,31.40
2022-08-17T12:34:42.158Z,30.70
2022-08-17T12:37:32.280Z,30.10
2022-08-17T12:40:09.522Z,30.50
2022-08-17T12:42:41.521Z,31.40
2022-08-17T12:45:39.494Z,30.90
2022-08-17T12:48:13.211Z,30.80
2022-08-17T12:50:47.290Z,31.10
2022-08-17T12:53:35.215Z,31.10
2022-08-17T12:56:09.408Z,30.40
2022-08-17T12:58:53.425Z,31.10
2022-08-17T13:03:54.995Z,31.20
2022-08-17T13:06:37.291Z,30.80
2022-08-17T13:09:39.982Z,30.50
2022-08-17T13:12:09.491Z,30.90
2022-08-17T13:14:37.675Z,31.60
2022-08-17T13:17:11.038Z,29.60
2022-08-17T13:19:51.261Z,30.50
2022-08-17T13:22:25.095Z,31.00
2022-08-17T13:24:58.572Z,30.70
2022-08-17T13:27:29.717Z,31.90
2022-08-17T13:30:09.313Z,29.90
2022-08-17T13:32:48.309Z,30.90
2022-08-17T13:35:40.930Z,30.70
2022-08-17T13:38:15.190Z,31.50
2022-08-17T13:40:50.435Z,30.40
2022-08-17T13:43:45.647Z,31.60
2022-08-17T13:46:27.946Z,31.00
2022-08-17T13:49:01.709Z,30.40
2022-08-17T13:51:44.202Z,30.00
2022-08-17T13:54:33.055Z,30.40
2022-08-17T14:00:10.982Z,29.30
2022-08-17T14:02:39.188Z,29.20
2022-08-17T14:05:07.400Z,29.90
2022-08-17T14:07:39.838Z,29.90
2022-08-17T14:10:17.297Z,29.30
2022-08-17T14:12:47.747Z,29.90
2022-08-17T14:15:20.753Z,30.10
2022-08-17T14:17:50.517Z,29.80
2022-08-17T14:20:22.410Z,30.20
2022-08-17T14:22:55.678Z,29.20
2022-08-17T14:25:30.131Z,29.80
2022-08-17T14:30:29.894Z,29.60
2022-08-17T14:32:59.573Z,30.30
2022-08-17T14:35:29.716Z,30.70
2022-08-17T14:37:58.523Z,29.10
2022-08-17T14:42:57.940Z,30.00
2022-08-17T14:48:05.692Z,29.40
2022-08-17T14:53:06.438Z,29.00
2022-08-17T14:55:35.520Z,29.70
2022-08-17T14:58:04.039Z,29.40
2022-08-17T15:00:32.806Z,29.00
2022-08-17T15:03:03.193Z,29.00
2022-08-17T15:05:36.728Z,29.80
2022-08-17T15:08:06.175Z,30.70
2022-08-17T15:10:34.448Z,30.40
2022-08-17T15:13:03.039Z,28.80
2022-08-17T15:20:31.224Z,29.40
2022-08-17T15:23:00.080Z,28.50
2022-08-17T15:25:32.760Z,29.80
2022-08-17T15:28:02.312Z,29.90
2022-08-17T15:30:31.955Z,28.70
2022-08-17T15:33:01.972Z,29.30
2022-08-17T15:35:34.143Z,28.40
2022-08-17T15:38:11.625Z,29.30
2022-08-17T15:40:48.426Z,29.40
2022-08-17T15:43:27.581Z,29.50
2022-08-17T15:46:21.912Z,30.10
2022-08-17T15:48:54.838Z,28.60
2022-08-17T15:54:18.881Z,30.00
2022-08-17T15:56:50.870Z,29.00
2022-08-17T16:09:40.796Z,28.90
2022-08-17T16:12:21.908Z,29.70
2022-08-17T16:14:53.279Z,29.70
2022-08-17T16:17:39.514Z,30.00
2022-08-17T16:20:20.698Z,30.20
2022-08-17T16:22:51.045Z,29.80
2022-08-17T16:25:50.317Z,29.90
2022-08-17T16:28:17.330Z,29.30
2022-08-17T16:40:42.463Z,29.70
2022-08-17T16:43:12.059Z,30.00
2022-08-17T16:48:12.028Z,30.10
2022-08-17T16:53:18.094Z,30.20
2022-08-17T16:55:48.158Z,30.60
2022-08-17T16:58:17.039Z,29.80
2022-08-17T17:00:48.975Z,31.00
2022-08-17T17:03:21.208Z,30.10
2022-08-17T17:05:57.981Z,31.00
2022-08-17T17:11:09.212Z,29.70
2022-08-17T17:14:01.551Z,29.60
2022-08-17T17:16:48.897Z,29.50
2022-08-17T17:19:26.322Z,28.80
2022-08-17T17:22:23.429Z,29.00
2022-08-17T17:27:43.666Z,29.10
2022-08-17T17:30:24.187Z,28.70
2022-08-17T17:33:06.645Z,27.70
2022-08-17T17:36:02.287Z,28.40
2022-08-17T17:38:42.265Z,28.50
2022-08-17T17:41:23.895Z,28.40
2022-08-17T17:44:05.192Z,28.40
2022-08-17T17:46:45.038Z,28.30
2022-08-17T17:49:14.426Z,27.40
2022-08-17T17:55:25.202Z,28.10
2022-08-17T17:58:23.870Z,28.80
2022-08-17T18:01:26.547Z,27.90
2022-08-17T18:04:28.254Z,27.10
2022-08-17T18:07:12.388Z,26.80
2022-08-17T18:10:19.756Z,27.70
2022-08-17T18:13:41.368Z,27.10
2022-08-17T18:16:15.153Z,27.50
2022-08-17T18:18:50.014Z,27.40
2022-08-17T18:21:38.771Z,27.40
2022-08-17T18:24:10.615Z,26.30
2022-08-17T18:26:57.034Z,27.00
2022-08-17T18:29:51.021Z,27.10
2022-08-17T18:32:33.772Z,27.90
2022-08-17T18:35:10.625Z,26.90
2022-08-17T18:37:56.613Z,26.80
2022-08-17T18:40:36.241Z,26.80
2022-08-17T18:45:52.510Z,25.80
2022-08-17T18:48:36.863Z,26.80
2022-08-17T18:51:40.597Z,26.50
2022-08-17T18:54:21.595Z,26.20
2022-08-17T18:56:59.509Z,25.80
2022-08-17T18:59:45.177Z,26.40
2022-08-17T19:04:59.955Z,26.60
2022-08-17T19:07:41.253Z,27.00
2022-08-17T19:10:46.330Z,25.50
2022-08-17T19:13:24.433Z,26.10
2022-08-17T19:16:31.389Z,26.10
2022-08-17T19:19:11.141Z,26.00
2022-08-17T19:21:45.142Z,26.00
2022-08-17T19:24:21.236Z,25.90
2022-08-17T19:27:17.901Z,26.00
2022-08-17T19:30:07.831Z,26.00
2022-08-17T19:35:16.589Z,25.90
2022-08-17T19:38:12.954Z,25.90
2022-08-17T19:43:56.757Z,25.80
2022-08-17T19:46:50.444Z,25.80
2022-08-17T19:52:52.793Z,25.70
2022-08-17T19:55:52.205Z,26.50
2022-08-17T19:58:37.898Z,25.80
2022-08-17T20:01:14.136Z,25.80
2022-08-17T20:03:57.236Z,25.70
2022-08-17T20:06:27.297Z,25.60
2022-08-17T20:12:00.416Z,25.40
2022-08-17T20:14:57.261Z,24.90
2022-08-17T20:17:33.170Z,25.40
2022-08-17T20:20:23.338Z,26.00
2022-08-17T20:23:07.078Z,25.20
2022-08-17T20:33:31.299Z,24.20
2022-08-17T20:36:32.322Z,24.80
2022-08-17T20:41:32.005Z,24.70
2022-08-17T20:46:40.223Z,24.50
2022-08-17T20:50:09.767Z,24.70
2022-08-17T20:52:52.921Z,24.50
2022-08-17T20:55:36.370Z,23.70
2022-08-17T20:58:31.129Z,24.40
2022-08-17T21:06:22.501Z,24.20
2022-08-17T21:09:00.541Z,24.20
2022-08-17T21:14:41.090Z,24.50
2022-08-17T21:17:39.759Z,24.00
2022-08-17T21:20:15.777Z,23.90
2022-08-17T21:26:08.034Z,23.90
2022-08-17T21:29:29.759Z,23.40
2022-08-17T21:32:05.433Z,23.20
2022-08-17T21:34:42.530Z,22.90
2022-08-17T21:37:35.020Z,23.60
2022-08-17T21:40:12.368Z,23.50
2022-08-17T21:42:53.772Z,23.60
2022-08-17T21:45:35.707Z,23.50
2022-08-17T21:48:24.095Z,23.40
2022-08-17T21:51:20.595Z,24.20
2022-08-17T21:53:58.072Z,23.40
2022-08-17T21:56:37.774Z,23.30
2022-08-17T21:59:40.404Z,23.30
2022-08-17T22:02:22.156Z,23.20
2022-08-17T22:05:37.328Z,23.20
2022-08-17T22:10:49.190Z,23.10
2022-08-17T22:13:29.352Z,23.10
2022-08-17T22:16:28.671Z,22.20
2022-08-17T22:24:08.380Z,22.90
2022-08-17T22:27:03.310Z,22.20
2022-08-17T22:29:57.962Z,22.30
2022-08-17T22:32:45.673Z,22.50
2022-08-17T22:35:42.249Z,22.80
2022-08-17T22:38:22.257Z,22.50
2022-08-17T22:40:54.587Z,22.70
2022-08-17T22:43:28.496Z,22.60
2022-08-17T22:46:01.012Z,22.60
2022-08-17T22:48:31.399Z,22.60
2022-08-17T22:51:20.635Z,22.50
2022-08-17T22:54:18.161Z,22.40
2022-08-17T22:57:19.043Z,21.60
2022-08-17T22:59:55.040Z,23.10
2022-08-17T23:02:31.219Z,22.70
2022-08-17T23:05:13.083Z,22.30
2022-08-17T23:07:43.304Z,22.20
2022-08-17T23:10:12.997Z,22.20
2022-08-17T23:15:16.615Z,22.20
2022-08-17T23:20:16.075Z,22.10
2022-08-17T23:22:51.444Z,22.10
2022-08-17T23:25:31.017Z,22.00
2022-08-17T23:28:01.571Z,22.10
2022-08-17T23:30:32.231Z,22.10
2022-08-17T23:33:06.438Z,22.00
2022-08-17T23:38:14.272Z,21.60
2022-08-17T23:43:23.937Z,22.00
2022-08-17T23:45:58.633Z,21.90
2022-08-17T23:51:11.190Z,21.80
2022-08-17T23:53:47.255Z,21.80
2022-08-17T23:58:45.865Z,21.80
